KMIE/MIE METAR and TAF weather

Enter ICAO airport designator
Station Type Date Time Source
KMIE METAR 2022/12/05 14:53 UTC NOAA

KMIE 051453Z 19008KT 10SM CLR 02/M05 A3000 RMK AO2 SLP165 T00171050 51004


Station Type Date Time Source
KMIE Decoded METAR 2022/12/05 14:53 UTC NOAA

MUNCIE DELAWARE JOHNSON, IN, United States (KMIE) 40-14N 85-24W 285M
Dec 05, 2022 - 09:53 AM EST / 2022.12.05 1453 UTC
Wind: from the S (190 degrees) at 9 MPH (8 KT):0
Visibility: 10 mile(s):0
Sky conditions: clear
Temperature: 35.1 F (1.7 C)
Dew Point: 23.0 F (-5.0 C)
Relative Humidity: 61%
Pressure (altimeter): 30 in. Hg (1015 hPa)
Pressure tendency: 0.01 inches (0.4 hPa) higher than three hours ago
ob: KMIE 051453Z 19008KT 10SM CLR 02/M05 A3000 RMK AO2 SLP165 T00171050 51004
cycle: 15

Station Type Date Time Source
KMIE TAF UTC NOAA

Error!

Example: see airport list